»·PEaware :: N6182G KRIV-KBUR

N6182G :: KRIV-KBUR

FLIGHT INFORMATION

Flight Status: Arrived
Operator: Privately registered:
United States
More flights under this callsign
Pilot: Paul A. (20189)
Aircraft: CESSNA 182 SKYLANE
(C182)
More flights by this aircraft type
Origin: KRIV March ARB
United States
Destination: KBUR Bob Hope-Burbank
United States
More flights between these airports :: More routes between these airports
Route: +PDZ V186 VNY
File this flight plan on PilotEdge
Remarks:
Altitude:
(Current/Filed)
6,000ft
Speed:
(Current/Filed)
120kts
Departed: 26-Sep-18 05:04 PM
Arrived: 26-Sep-18 05:37 PM
Distance/Time
Traveled:
58nm/0:33
Distance/Time
To Go:
Arrived

Flight Plot

Page will automatically refresh every two minutes.


Map Options




Map Legend


Flown Route
Filed Route
Departure Airport
Arrival Airport
Navaid (VOR, NDB)
Fix

Horizontal Profiles

Position Reports

Time Latitude Longitude Heading Altitude Ground
Speed
26-Sep-18 16:51 33.893047 -117.254478 112 1538ft 0kts
26-Sep-18 16:52 33.893047 -117.254477 112 1538ft 0kts
26-Sep-18 16:53 33.893046 -117.254476 112 1538ft 0kts
26-Sep-18 16:54 33.893046 -117.254475 112 1538ft 0kts
26-Sep-18 16:55 33.893045 -117.254473 112 1538ft 0kts
26-Sep-18 16:56 33.893045 -117.254472 112 1538ft 0kts
26-Sep-18 16:57 33.893044 -117.254471 112 1538ft 0kts
26-Sep-18 16:58 33.893044 -117.254470 112 1538ft 0kts
26-Sep-18 16:59 33.893044 -117.254468 112 1538ft 0kts
26-Sep-18 17:00 33.893043 -117.254467 112 1538ft 0kts
26-Sep-18 17:01 33.893043 -117.254466 112 1538ft 0kts
26-Sep-18 17:02 33.891667 -117.254415 196 1538ft 19kts
26-Sep-18 17:03 33.887253 -117.253650 135 1538ft 18kts
26-Sep-18 17:04 33.884463 -117.252529 193 1538ft 0kts
26-Sep-18 17:05 33.884086 -117.253217 304 1538ft 9kts
26-Sep-18 17:06 33.896612 -117.267941 312 2245ft 76kts
26-Sep-18 17:07 33.915031 -117.290241 314 3143ft 105kts
26-Sep-18 17:08 33.938139 -117.318446 313 4048ft 125kts
26-Sep-18 17:09 33.961695 -117.347903 309 4903ft 118kts
26-Sep-18 17:10 33.967532 -117.388474 272 5840ft 130kts
26-Sep-18 17:11 33.959670 -117.435053 236 5954ft 134kts
26-Sep-18 17:12 33.941376 -117.473628 242 5982ft 137kts
26-Sep-18 17:13 33.923359 -117.517781 243 5983ft 138kts
26-Sep-18 17:14 33.929491 -117.561993 293 5996ft 142kts
26-Sep-18 17:15 33.944989 -117.605359 292 5995ft 137kts
26-Sep-18 17:16 33.960446 -117.649158 292 6004ft 141kts
26-Sep-18 17:17 33.975810 -117.692754 292 6002ft 139kts
26-Sep-18 17:18 33.991196 -117.736506 292 6005ft 145kts
26-Sep-18 17:19 34.005475 -117.778727 289 6016ft 137kts
26-Sep-18 17:20 34.018840 -117.822555 290 6018ft 140kts
26-Sep-18 17:21 34.032597 -117.867093 290 6017ft 142kts
26-Sep-18 17:22 34.047263 -117.914567 290 6005ft 147kts
26-Sep-18 17:23 34.060518 -117.957598 289 6013ft 131kts
26-Sep-18 17:24 34.073036 -117.998320 289 6023ft 132kts
26-Sep-18 17:25 34.087675 -118.045948 290 6003ft 147kts
26-Sep-18 17:26 34.101654 -118.091461 289 6015ft 137kts
26-Sep-18 17:27 34.114754 -118.134296 290 6009ft 138kts
26-Sep-18 17:28 34.125455 -118.181036 271 5723ft 135kts
26-Sep-18 17:29 34.127343 -118.227243 272 4928ft 133kts
26-Sep-18 17:30 34.129073 -118.272426 272 4124ft 130kts
26-Sep-18 17:31 34.130293 -118.312518 272 3994ft 118kts
26-Sep-18 17:32 34.131574 -118.351060 272 3992ft 112kts
26-Sep-18 17:33 34.133071 -118.392890 272 4011ft 133kts
26-Sep-18 17:34 34.138968 -118.437736 311 3737ft 127kts
26-Sep-18 17:35 34.167487 -118.445564 6 2946ft 94kts
26-Sep-18 17:36 34.194132 -118.436662 38 1959ft 105kts
26-Sep-18 17:37 34.198760 -118.407565 91 1425ft 86kts
26-Sep-18 17:38 34.198267 -118.380639 94 945ft 79kts
26-Sep-18 17:39 34.197474 -118.360328 167 724ft 5kts
26-Sep-18 17:40 34.197355 -118.360309 172 724ft 0kts
26-Sep-18 17:41 34.197354 -118.360309 172 724ft 0kts
26-Sep-18 17:42 34.195891 -118.360060 149 724ft 0kts
26-Sep-18 17:43 34.195891 -118.360060 149 724ft 0kts
26-Sep-18 17:44 34.195891 -118.360060 149 724ft 0kts
26-Sep-18 17:45 34.195891 -118.360060 149 724ft 0kts
26-Sep-18 17:46 34.195891 -118.360060 149 724ft 0kts

Navigation Log

Ident Type
Flight plan parsing failed, navigation log unavailable